• Join FlightAware (Why Join?)
  • Login
  • US Flag 
01:22PM EDT


 

Airport Tracker/Info


-or-


 

Live Flight TrackerFlight Track Log ✈ JZA8474 ✈ 15-May-2013 ✈ CYCG - CYYC

Flight Track Log - Related Links

Times and Time Zones

All times are in EDT time to prevent confusion due to time zone crossing. See the JZA8474 flight status page for this flight to view local times or setup timezone preferences in your user account.

Time Position Orientation Groundspeed Altitude Reporting Facility
EDT Latitude Longitude Course Direction KTS MPH feet Rate Location/Type
02:49PM 49.5815 -117.1843 48° Northeast  Level FlightAware Approximate
02:50PM 49.6211 -117.1164 48° Northeast  Level FlightAware Approximate
02:50PM 49.5500 -117.2500 47° Northeast 170 196 10,600  Level Vancouver Center
02:51PM 49.6605 -117.0481 49° Northeast  Level FlightAware Approximate
02:51PM 49.6000 -117.2000 33° Northeast 210 242 11,600  Level Vancouver Center
02:52PM 49.6994 -116.9792 49° Northeast  Level FlightAware Approximate
02:52PM 49.6500 -117.1167 47° Northeast 220 253 12,800  Level Vancouver Center
02:53PM 49.7383 -116.9101 49° Northeast  Level FlightAware Approximate
02:53PM 49.6667 -117.0667 63° Northeast 220 253 13,800  Level Vancouver Center
02:54PM 49.7771 -116.8409 49° Northeast  Level FlightAware Approximate
02:54PM 49.7167 -116.9833 47° Northeast 230 265 14,800  Level Vancouver Center
02:55PM 49.8165 -116.7726 47° Northeast  Level FlightAware Approximate
02:55PM 49.7667 -116.9000 47° Northeast 240 276 15,900  Level Vancouver Center
02:56PM 49.8569 -116.7054 47° Northeast  Level FlightAware Approximate
02:56PM 49.8167 -116.8333 41° Northeast 230 265 17,000  Level Vancouver Center
02:57PM 49.8500 -116.7500 58° Northeast 230 265 17,800 840 Climbing Vancouver Center
02:58PM 49.9000 -116.6667 47° Northeast 240 276 18,700 840 Climbing Vancouver Center
02:59PM 49.9500 -116.6000 41° Northeast 240 276 19,500 780 Climbing Vancouver Center
03:00PM 49.9833 -116.5167 58° Northeast 230 265 20,300 780 Climbing Vancouver Center
03:01PM 50.0167 -116.4333 58° Northeast 240 276 21,100 660 Climbing Vancouver Center
03:02PM 50.0667 -116.3833 33° Northeast 240 276 21,700 600 Climbing Vancouver Center
03:03PM 50.1167 -116.3000 47° Northeast 250 288 22,400 600 Climbing Vancouver Center
03:04PM 50.1500 -116.2000 62° Northeast 250 288 23,000 300 Climbing Vancouver Center
03:05PM 50.2000 -116.1167 47° Northeast 260 299 23,000  Level Vancouver Center
03:06PM 50.2333 -116.1167 360° North 270 311 23,000  Level Edmonton Center
03:07PM 50.2667 -116.0167 62° Northeast 280 322 23,000  Level Edmonton Center
03:08PM 50.3333 -115.9333 39° Northeast 290 334 23,000  Level Edmonton Center
03:09PM 50.3833 -115.8333 52° Northeast 300 345 23,000  Level Edmonton Center
03:10PM 50.4333 -115.7167 56° Northeast 300 345 23,000  Level Edmonton Center
03:11PM 50.5000 -115.6167 44° Northeast 300 345 23,000 -300 Level Edmonton Center
03:12PM 50.5500 -115.5333 47° Northeast 300 345 22,500 -900 Descending Edmonton Center
03:13PM 50.6000 -115.4333 52° Northeast 310 357 21,200 -1,440 Descending Edmonton Center
03:14PM 50.6667 -115.3167 48° Northeast 320 368 19,700 -1,440 Descending Edmonton Center
03:15PM 50.7333 -115.2000 48° Northeast 320 368 18,400 -1,380 Descending Edmonton Center
03:15PM 50.7500 -115.1000 75° East 320 368 18,000 -1,380 Descending Vancouver Center
03:16PM 50.8167 -115.0167 38° Northeast 310 357 16,700 -1,320 Descending Vancouver Center
03:18PM 50.8667 -114.8667 62° Northeast 300 345 14,400 -1,200 Descending Edmonton Center
03:19PM 50.8833 -114.7500 77° East 290 334 13,500 -1,200 Descending Edmonton Center
03:21PM 50.9234 -114.6167 64° Northeast  Level FlightAware Approximate
03:21PM 50.9500 -114.5167 64° Northeast 250 288 10,800  Level Edmonton Center
03:22PM 50.9667 -114.4167 75° East 270 311 9,700 -1,080 Descending Edmonton Center
03:23PM 51.0000 -114.3167 62° Northeast 270 311 8,700 -900 Descending Edmonton Center
03:24PM 51.0667 -114.2667 25° Northeast 240 276 8,000 -360 Descending Edmonton Center
03:25PM 51.1167 -114.2500 12° North 230 265 8,000 -420 Level Edmonton Center
03:26PM 51.1833 -114.2500 360° North 230 265 7,200 -1,020 Descending Edmonton Center
03:27PM 51.2500 -114.2000 25° Northeast 250 288 6,000 -600 Descending Edmonton Center
03:28PM 51.2667 -114.1000 75° East 230 265 6,000 -360 Level Edmonton Center
03:29PM 51.2167 -114.0333 140° Southeast 220 253 5,300 -600 Descending Edmonton Center
03:30PM 51.1667 -114.0500 192° South 180 207 4,800 -540 Descending Edmonton Center